Accident, MD

5:36 AM EST on November 12, 2019 (GMT -0500)
Greenscapes (McHenry) | | Change Station
Active Advisory: Winter Weather Advisory

Elev 2638 ft 39.57 °N, 79.37 °W | Updated 4 seconds ago

Overcast
Overcast
25.9 °F
Feels Like 15 °F
N
12.1
Wind Variable Wind from West
Gusts 18.0 mph

Today
High -- | Low -- °F
--% Chance of Precip.
Yesterday
High -- | Low -- °F
Precip. -- in
Pressure 29.86 in
Visibility 1.5 miles
Clouds Overcast 300 ft
Windchill 15 °F
Dew Point 25 °F
Humidity 96%
Rainfall 0.14 in
Snow Depth Not available.
6:57 AM 5:04 PM
Full, 100% visible
METAR K2G4 121005Z AUTO 29010G25KT 272V332 1 1/2SM OVC003 M03/M03 A2986 RMK AO1
Pressure 29.86 in
Visibility 1.5 miles
Clouds Overcast 300 ft
Windchill 15 °F
Dew Point 25 °F
Humidity 96%
Rainfall 0.14 in
Snow Depth Not available.
6:57 AM 5:04 PM
Full, 100% visible
METAR K2G4 121005Z AUTO 29010G25KT 272V332 1 1/2SM OVC003 M03/M03 A2986 RMK AO1

Get Your Daily Forecast Email!

Thanks for signing up!

Be on the lookout for a verification email in your inbox.

You'll start receiving severe weather alerts in your inbox..

×

10-Day Weather Forecast

Almanac

Astronomy

Nov. 12, 2019 Rise Set
Actual Time
Civil Twilight
Nautical Twilight
Astronomical Twilight
Moon
Length of Visible Light
Length of Day
Tomorrow will be .
, % of the Moon is Illuminated

Today's Extremes

State Highs State Lows

Community

WunderPhotos

Category 6

Welcome to Category 6. This is the collective home for Weather Underground's featured writeups by Dr. Jeff Masters (right), Bob Henson (left), Chris Burt, and other regular contributors.

Nearby

Air Quality

  Air Quality AQ Index Pollutant
Not available.

Snow Depth

Station Depth Elevation

Earthquake Activity

City Distance Mag. Time & Date
Minimum magnitude displayed is 2.5.

Coastal Water Temperatures

Place Temperature

Stations

Nearby Weather Stations

Station Location Temp. Windchill Dew Point Humidity Wind Precip. Elev Updated Type
                   

Watches & Warnings

Winter Weather Advisory
Issued: 3:32 AM EST Nov. 12, 2019 – National Weather Service

... Winter Weather Advisory remains in effect until 7 PM EST this
evening...

* what... snow expected. Total snow accumulations of 3 to 5
inches. Winds gusting as high as 35 mph.

* Where... portions of southwest Pennsylvania, western Maryland
and northern West Virginia.

* When... through 7 PM EST today.

* Impacts... plan on slippery Road conditions. The hazardous
conditions could impact the morning and evening commute.

Precautionary/preparedness actions...

Slow down and use caution while traveling.

Please report snow or ice by calling 412-262-1988, posting to the
NWS Pittsburgh facebook Page, or using twitter @nwspittsburgh

The Pennsylvania Department of Transportation and Pennsylvania
Turnpike commission remind motorists to adjust speeds based on
driving conditions as winter weather impacts Pennsylvania
roadways. Visit www.511pa.Com for the latest travel, roadway and
traffic conditions.



07